Portada
METAR-TAF:

METAR-TAF

Aeroports :

Payerne, Suïssa

latitud: 46-49N, longitud: 006-57E, altitud: 490 m

Observació

L'informe es va fer fa 23 minuts, a les 17:20 UTC
Vent 13 kt del Est/Nord-Est
Temperatura 8°C
Humitat 36%
Pressió 1021 hPa
Visibilitat 10 km o més

METAR: LSMP 311720Z AUTO 06013KT 9999NDV NCD 08/M06 Q1021 RMK

Hora: 19:43 (17:43 UTC)


TAF: manca

Observacions i pronòstics meteorològics de més de 4000 aeroports (METAR i TAF).

Les estacions disponibles són els punts grocs i vermells al mapa.

Posi el ratolí al punt desitjat per veure el nom de l'estació.

Feu clic per veure les observacions i els pronòstics meteorològics.

Per canviar el mapa: feu clic els botons verds amb una creu de color negre per apropar; al botó verd amb un guió per allunyar la imatge; o en les fletxes verdes per a mapes adjacents.


METAR-TAF: